TLPC Airport Information

Runway Information
Runway 09 Length 5735 ft width 148 ft
Elevation 20 ft Threshold 426 ft Heading 75
Runway 27 Length 5735 ft Width 148 ft
Elevation 10 ft Threshold 1007 ft Heading 255
Airport Frequencies
Type GND Name GND Frequency 121.9 MHZ
Type TWR Name TWR Frequency 118 MHZ
Airport Navaids
Type NDB Name Vigie Frequency 415 KHZ
Airport Weather Information & NOTAM
ADDS - METARS form results

(1011 UTC 20 October 2021)
Data provider http://aviationweather.gov/metar/data/
 
Forecast for: TLPC (VIGIE/ST LUCIA , LC)
Text: TAF TLPC 200500Z 2006/2106 11008KT 9999 SCT023
Forecast period: 0600 UTC 20 October 2021 to 0600 UTC 21 October 2021
Forecast type: FROM: standard forecast or significant change
Winds: from the ESE (110 degrees) at 9 MPH (8 knots; 4.1 m/s)
Visibility: 6 or more miles (10+ km)
Ceiling: at least 12,000 feet AGL
Clouds: scattered clouds at 2300 feet AGL
Weather: no significant weather forecast for this period
Text: TEMPO 2020/2106 5000 SHRA TS FEW012CB BKN014
Forecast period: 2000 UTC 20 October 2021 to 0600 UTC 21 October 2021
Forecast type: TEMPORARY: The following changes expected for less than half the time period
Visibility: 3 miles (5 km)
Ceiling: 1400 feet AGL
Clouds: few clouds at 1200 feet AGL
broken clouds at 1400 feet AGL
Weather: SHRA TS  (rain showers, thunderstorm)